Time;durP1;ratioP1;P1;durP2;ratioP2;P2;SDS_P1;SDS_P2;PMS_P1;PMS_P2;Temp;Humidity;BMP_temperature;BMP_pressure;BME280_temperature;BME280_humidity;BME280_pressure;Samples;Min_cycle;Max_cycle;Signal;HPM_P1;HPM_P2
2023/09/20 00:00:55;;;;;;;0.95;0.95;;;;;;;20.14;100.00;100353.38;5074975;28;20202;-78
2023/09/20 00:03:25;;;;;;;2.92;1.38;;;;;;;20.14;100.00;100343.72;5075285;28;20191;-74
2023/09/20 00:05:53;;;;;;;1.63;1.50;;;;;;;20.18;100.00;100334.84;5075166;28;20226;-78
2023/09/20 00:08:20;;;;;;;1.38;1.08;;;;;;;20.12;100.00;100347.28;5075544;28;20214;-78
2023/09/20 00:10:48;;;;;;;18.92;1.77;;;;;;;20.16;100.00;100346.28;5075234;28;20237;-78
2023/09/20 00:13:15;;;;;;;1.92;1.10;;;;;;;20.20;100.00;100353.22;5039546;28;20230;-78
2023/09/20 00:15:42;;;;;;;1.67;1.20;;;;;;;20.17;100.00;100354.16;5039105;28;20207;-78
2023/09/20 00:18:09;;;;;;;1.95;1.40;;;;;;;19.88;100.00;100322.28;5074461;28;20212;-78
2023/09/20 00:20:36;;;;;;;2.53;1.90;;;;;;;20.12;100.00;100345.47;5055994;28;20211;-78
2023/09/20 00:23:03;;;;;;;1.65;1.52;;;;;;;20.15;100.00;100355.97;5074910;28;20207;-75
2023/09/20 00:25:30;;;;;;;1.95;1.15;;;;;;;20.25;100.00;100368.06;5074317;28;20199;-77
2023/09/20 00:27:58;;;;;;;1.35;1.05;;;;;;;20.33;100.00;100370.59;5074689;28;20203;-78
2023/09/20 00:30:25;;;;;;;1.25;1.02;;;;;;;20.18;100.00;100345.38;5074109;28;20313;-78
2023/09/20 00:32:52;;;;;;;2.40;1.35;;;;;;;20.33;100.00;100356.53;5074218;28;20195;-77
2023/09/20 00:35:19;;;;;;;1.98;1.10;;;;;;;20.30;100.00;100360.09;5073875;28;20207;-78
2023/09/20 00:37:46;;;;;;;2.20;1.10;;;;;;;20.32;100.00;100334.59;5073618;28;20195;-77
2023/09/20 00:40:16;;;;;;;1.58;1.15;;;;;;;20.36;100.00;100336.28;5074046;28;20241;-78
2023/09/20 00:42:45;;;;;;;1.60;1.08;;;;;;;20.33;100.00;100324.94;5073939;28;20198;-78
2023/09/20 00:45:15;;;;;;;2.13;1.33;;;;;;;20.43;100.00;100319.44;5073547;28;20226;-78
2023/09/20 00:47:44;;;;;;;1.40;1.17;;;;;;;20.37;100.00;100309.00;5074075;28;20256;-78
2023/09/20 00:50:12;;;;;;;2.67;1.20;;;;;;;20.43;100.00;100318.56;5074311;28;20317;-77
2023/09/20 00:52:43;;;;;;;1.60;1.10;;;;;;;20.38;100.00;100291.44;5074021;28;20264;-78
2023/09/20 00:55:15;;;;;;;1.40;1.10;;;;;;;20.48;100.00;100311.41;5074165;28;20203;-78
2023/09/20 00:57:42;;;;;;;2.88;1.40;;;;;;;20.47;100.00;100310.56;5054692;28;20674;-76
2023/09/20 01:00:20;;;;;;;1.02;0.90;;;;;;;20.52;100.00;100313.09;5073990;28;20195;-77
2023/09/20 01:02:49;;;;;;;1.10;1.00;;;;;;;20.60;100.00;100311.16;5073900;28;20248;-77
2023/09/20 01:05:21;;;;;;;1.77;1.45;;;;;;;20.49;100.00;100292.94;5073842;28;20234;-77
2023/09/20 01:07:50;;;;;;;1.48;1.30;;;;;;;20.57;100.00;100296.28;5073873;28;20228;-77
2023/09/20 01:10:17;;;;;;;4.68;1.50;;;;;;;20.61;100.00;100305.00;5073964;28;20226;-77
2023/09/20 01:12:45;;;;;;;2.30;1.50;;;;;;;20.49;100.00;100284.19;5073753;28;20210;-77
2023/09/20 01:15:11;;;;;;;3.15;1.58;;;;;;;20.59;100.00;100288.34;5073340;28;20205;-77
2023/09/20 01:17:45;;;;;;;1.65;1.25;;;;;;;20.80;100.00;100303.66;5073665;28;20203;-77
2023/09/20 01:20:17;;;;;;;1.40;1.00;;;;;;;20.76;100.00;100297.59;5073881;28;20298;-78
2023/09/20 01:22:46;;;;;;;2.05;1.23;;;;;;;20.72;100.00;100295.09;5073652;28;20209;-78
2023/09/20 01:25:22;;;;;;;2.05;1.00;;;;;;;20.68;100.00;100280.25;5073072;28;20209;-76
2023/09/20 01:27:50;;;;;;;0.90;0.90;;;;;;;20.47;100.00;100278.09;5073604;28;20642;-78
2023/09/20 01:30:17;;;;;;;1.42;1.33;;;;;;;20.20;100.00;100261.06;5073280;28;20230;-77
2023/09/20 01:32:44;;;;;;;3.47;1.40;;;;;;;20.31;100.00;100280.19;5073571;28;20647;-78
2023/09/20 01:35:11;;;;;;;2.40;1.27;;;;;;;20.35;100.00;100278.34;5073340;28;20191;-77
2023/09/20 01:37:38;;;;;;;1.50;1.40;;;;;;;20.36;100.00;100286.22;5073448;28;20629;-72
2023/09/20 01:43:21;;;;;;;1.38;1.08;;;;;;;20.42;100.00;100264.16;5015935;28;20234;-79
2023/09/20 01:45:49;;;;;;;1.83;1.02;;;;;;;20.57;100.00;100280.50;5072911;28;20198;-78
2023/09/20 01:48:15;;;;;;;6.57;1.95;;;;;;;20.57;100.00;100283.13;5072765;28;20206;-78
2023/09/20 01:50:42;;;;;;;1.27;0.90;;;;;;;20.56;100.00;100268.22;5072634;28;20238;-78
2023/09/20 01:53:10;;;;;;;1.33;1.20;;;;;;;20.47;100.00;100262.28;5072714;28;20207;-78
2023/09/20 01:55:42;;;;;;;1.65;1.00;;;;;;;20.66;100.00;100279.41;5073103;28;20206;-78
2023/09/20 01:58:12;;;;;;;1.17;1.08;;;;;;;20.60;100.00;100285.69;5072717;28;20290;-77
2023/09/20 02:00:40;;;;;;;1.52;1.00;;;;;;;20.36;100.00;100235.31;5072931;28;20203;-78
2023/09/20 02:03:11;;;;;;;3.70;1.15;;;;;;;20.76;100.00;100278.31;5072324;28;20282;-77
2023/09/20 02:05:38;;;;;;;1.00;0.95;;;;;;;20.83;100.00;100279.91;5072500;28;20195;-78
2023/09/20 02:08:07;;;;;;;2.22;1.13;;;;;;;20.93;100.00;100276.13;5072697;28;20199;-77
2023/09/20 02:10:34;;;;;;;1.55;1.25;;;;;;;20.95;100.00;100271.66;5072073;28;20672;-77
2023/09/20 02:13:02;;;;;;;1.02;0.88;;;;;;;21.02;100.00;100269.75;5072264;28;21879;-78
2023/09/20 02:15:31;;;;;;;1.60;1.27;;;;;;;20.78;100.00;100213.22;5072701;28;20198;-77
2023/09/20 02:17:59;;;;;;;1.35;1.25;;;;;;;21.13;100.00;100265.13;5072817;28;20196;-76
2023/09/20 02:20:26;;;;;;;1.77;1.67;;;;;;;21.18;100.00;100263.25;5037416;28;20194;-78
2023/09/20 02:22:54;;;;;;;1.85;1.10;;;;;;;21.10;100.00;100267.78;5072919;28;20663;-78
2023/09/20 02:25:22;;;;;;;1.17;1.08;;;;;;;21.00;100.00;100268.94;5072263;28;20206;-78
2023/09/20 02:27:49;;;;;;;1.98;1.65;;;;;;;20.73;100.00;100257.25;5072752;28;20544;-78
2023/09/20 02:30:24;;;;;;;1.90;1.38;;;;;;;20.80;100.00;100261.50;5072323;28;20227;-78
2023/09/20 02:32:52;;;;;;;4.93;1.65;;;;;;;20.64;100.00;100281.22;5038468;28;20214;-78
2023/09/20 02:35:20;;;;;;;1.25;1.25;;;;;;;20.15;100.00;100279.63;5072142;28;20203;-77
2023/09/20 02:37:48;;;;;;;1.10;1.10;;;;;;;19.67;100.00;100222.69;5036839;28;20289;-78
2023/09/20 02:40:15;;;;;;;1.48;1.35;;;;;;;19.89;100.00;100263.47;5071947;28;20214;-75
2023/09/20 02:42:44;;;;;;;1.77;0.95;;;;;;;20.05;100.00;100275.41;5052069;28;20674;-78
2023/09/20 02:45:12;;;;;;;1.75;1.10;;;;;;;20.14;100.00;100285.78;5042274;28;20694;-78
2023/09/20 02:47:41;;;;;;;1.08;0.88;;;;;;;20.25;100.00;100298.72;5072209;28;20573;-77
2023/09/20 02:50:11;;;;;;;2.08;1.50;;;;;;;20.16;100.00;100277.84;5071800;28;20230;-78
2023/09/20 02:52:39;;;;;;;1.23;1.13;;;;;;;20.04;100.00;100257.91;5034223;28;20567;-78
2023/09/20 02:55:07;;;;;;;1.30;0.98;;;;;;;20.35;100.00;100296.78;5063401;28;20281;-78
2023/09/20 02:57:36;;;;;;;2.05;1.20;;;;;;;20.09;100.00;100249.91;5071931;28;20202;-79
2023/09/20 03:00:14;;;;;;;1.63;1.17;;;;;;;20.40;100.00;100302.84;5071895;28;20268;-77
2023/09/20 03:02:45;;;;;;;2.38;1.63;;;;;;;20.42;100.00;100306.28;5071782;28;20652;-78
2023/09/20 03:05:15;;;;;;;0.80;0.80;;;;;;;20.32;100.00;100307.38;5071539;28;20198;-78
2023/09/20 03:07:43;;;;;;;1.25;0.90;;;;;;;20.28;100.00;100309.22;5036314;28;20282;-78
2023/09/20 03:10:12;;;;;;;1.00;0.93;;;;;;;20.30;100.00;100301.31;5071233;28;20230;-78
2023/09/20 03:12:41;;;;;;;1.38;1.23;;;;;;;20.16;100.00;100289.22;5071337;28;20950;-78
2023/09/20 03:15:10;;;;;;;1.50;1.30;;;;;;;20.25;100.00;100325.94;5071312;28;20780;-78
2023/09/20 03:17:37;;;;;;;1.55;1.27;;;;;;;20.20;100.00;100317.25;5071541;28;20202;-78
2023/09/20 03:20:10;;;;;;;1.42;1.23;;;;;;;20.21;100.00;100318.97;5036281;28;20221;-78
2023/09/20 03:22:37;;;;;;;1.52;1.17;;;;;;;20.00;100.00;100313.28;5060241;28;20764;-78
2023/09/20 03:25:05;;;;;;;1.55;1.25;;;;;;;19.83;100.00;100316.25;5078042;28;20249;-78
2023/09/20 03:27:31;;;;;;;1.20;1.10;;;;;;;19.71;100.00;100290.16;5078181;28;20656;-78
2023/09/20 03:29:58;;;;;;;1.20;1.10;;;;;;;19.82;100.00;100301.34;5077898;28;20202;-78
2023/09/20 03:32:26;;;;;;;2.03;1.60;;;;;;;19.83;100.00;100300.47;5042516;28;20719;-78
2023/09/20 03:34:54;;;;;;;1.48;1.35;;;;;;;19.78;100.00;100291.78;5078159;28;20264;-79
2023/09/20 03:37:23;;;;;;;3.08;2.05;;;;;;;19.90;100.00;100299.44;5078027;28;20285;-78
2023/09/20 03:39:51;;;;;;;1.92;1.73;;;;;;;19.76;100.00;100307.56;5078172;28;20209;-77
2023/09/20 03:42:17;;;;;;;1.75;1.52;;;;;;;19.82;100.00;100303.97;5069318;28;20260;-78
2023/09/20 03:44:45;;;;;;;1.65;1.52;;;;;;;19.88;100.00;100298.59;5078163;28;20190;-79
2023/09/20 03:47:12;;;;;;;1.80;1.15;;;;;;;19.92;100.00;100295.00;5078152;28;20291;-78
2023/09/20 03:49:39;;;;;;;1.67;1.58;;;;;;;19.94;100.00;100293.19;5059195;28;20264;-78
2023/09/20 03:52:06;;;;;;;2.17;1.52;;;;;;;19.99;100.00;100306.28;5078211;28;20257;-77
2023/09/20 03:54:35;;;;;;;2.22;1.40;;;;;;;19.93;100.00;100307.28;5078053;28;20591;-78
2023/09/20 03:57:02;;;;;;;1.23;1.20;;;;;;;19.88;100.00;100311.75;5078320;28;20205;-78
2023/09/20 03:59:32;;;;;;;5.53;2.20;;;;;;;19.98;100.00;100315.06;5059488;28;20647;-78
2023/09/20 04:01:59;;;;;;;8.27;2.22;;;;;;;19.75;100.00;100307.63;5077974;28;20216;-78
2023/09/20 04:04:26;;;;;;;2.38;1.60;;;;;;;19.77;100.00;100306.69;5077606;28;20282;-78
2023/09/20 04:06:53;;;;;;;1.73;1.52;;;;;;;19.66;100.00;100313.03;5077671;28;20206;-77
2023/09/20 04:09:20;;;;;;;0.90;0.90;;;;;;;19.76;100.00;100315.47;5071023;28;20264;-78
2023/09/20 04:11:49;;;;;;;1.05;1.05;;;;;;;19.94;100.00;100311.63;5077589;28;20226;-78
2023/09/20 04:14:15;;;;;;;1.55;1.30;;;;;;;20.00;100.00;100319.41;5077326;28;20297;-78
2023/09/20 04:16:42;;;;;;;2.08;1.52;;;;;;;20.06;100.00;100319.28;5077272;28;20576;-77
2023/09/20 04:19:09;;;;;;;1.45;1.35;;;;;;;19.91;100.00;100282.72;5069690;28;20540;-78
2023/09/20 04:21:37;;;;;;;2.72;1.52;;;;;;;20.11;100.00;100319.19;5077570;28;20775;-78
2023/09/20 04:24:05;;;;;;;1.88;1.48;;;;;;;19.97;100.00;100319.47;5078037;28;20203;-77
2023/09/20 04:26:32;;;;;;;1.27;1.17;;;;;;;20.03;100.00;100300.06;5077670;28;20290;-77
2023/09/20 04:29:00;;;;;;;2.25;1.50;;;;;;;20.31;100.00;100313.53;5077706;28;20203;-78
2023/09/20 04:31:27;;;;;;;1.73;1.10;;;;;;;20.31;100.00;100318.81;5057951;28;20293;-78
2023/09/20 04:33:54;;;;;;;1.45;1.35;;;;;;;20.40;100.00;100311.59;5054237;28;20199;-78
2023/09/20 04:36:21;;;;;;;2.97;2.17;;;;;;;20.38;100.00;100323.94;5054775;28;20719;-78
2023/09/20 04:38:49;;;;;;;1.42;1.20;;;;;;;20.24;100.00;100318.91;5064730;28;20230;-78
2023/09/20 04:41:17;;;;;;;1.33;1.17;;;;;;;20.33;100.00;100333.72;5074533;28;20671;-79
2023/09/20 04:43:43;;;;;;;1.52;1.30;;;;;;;20.23;100.00;100322.44;5074734;28;20207;-78
2023/09/20 04:46:11;;;;;;;1.95;1.38;;;;;;;20.29;100.00;100337.31;5053606;28;20203;-78
2023/09/20 04:48:40;;;;;;;1.50;1.00;;;;;;;20.19;100.00;100344.47;5074744;28;20207;-77
2023/09/20 04:51:07;;;;;;;1.23;1.13;;;;;;;20.27;100.00;100339.94;5074382;28;20218;-78
2023/09/20 04:53:34;;;;;;;2.40;1.45;;;;;;;20.34;100.00;100339.81;5074005;28;20219;-77
2023/09/20 04:56:01;;;;;;;2.45;1.85;;;;;;;20.39;100.00;100337.97;5074333;28;20248;-78
2023/09/20 04:58:28;;;;;;;1.40;1.30;;;;;;;20.53;100.00;100338.53;5073960;28;20193;-78
2023/09/20 05:00:55;;;;;;;1.35;1.25;;;;;;;20.56;100.00;100341.09;5073937;28;20199;-76
2023/09/20 05:03:23;;;;;;;4.82;1.90;;;;;;;20.67;100.00;100341.75;5073692;28;20206;-76
2023/09/20 05:05:51;;;;;;;1.65;1.30;;;;;;;20.57;100.00;100337.59;5073961;28;20202;-76
2023/09/20 05:08:18;;;;;;;1.23;1.13;;;;;;;20.51;100.00;100311.38;5073426;28;20197;-76
2023/09/20 05:10:45;;;;;;;3.30;1.23;;;;;;;20.78;100.00;100337.09;5066616;28;20261;-76
2023/09/20 05:13:12;;;;;;;3.05;1.85;;;;;;;20.81;100.00;100342.31;5045793;28;20218;-77
2023/09/20 05:15:39;;;;;;;1.90;1.27;;;;;;;20.80;100.00;100322.09;5058949;28;20269;-72
2023/09/20 05:18:06;;;;;;;2.10;1.50;;;;;;;21.07;100.00;100324.13;5076841;28;20210;-75
2023/09/20 05:20:35;;;;;;;2.38;1.23;;;;;;;21.07;100.00;100310.06;5062876;28;20202;-74
2023/09/20 05:23:04;;;;;;;1.60;1.30;;;;;;;21.29;100.00;100352.66;5072920;28;20202;-77
2023/09/20 05:25:31;;;;;;;1.40;1.23;;;;;;;21.27;100.00;100352.66;5075170;28;20199;-75
2023/09/20 05:27:58;;;;;;;4.55;2.05;;;;;;;21.41;100.00;100353.19;5071607;28;20202;-78
2023/09/20 05:30:26;;;;;;;3.38;2.33;;;;;;;21.49;100.00;100353.00;5085013;28;20688;-74
2023/09/20 05:32:53;;;;;;;1.00;1.00;;;;;;;21.52;100.00;100347.66;5068009;28;20280;-76
2023/09/20 05:35:20;;;;;;;2.58;2.28;;;;;;;21.56;100.00;100344.03;5071275;28;20215;-76
2023/09/20 05:37:48;;;;;;;7.32;2.33;;;;;;;21.58;100.00;100352.78;5041206;28;20199;-76
2023/09/20 05:40:17;;;;;;;2.80;2.60;;;;;;;21.38;100.00;100355.03;5072664;28;20213;-73
2023/09/20 05:42:44;;;;;;;2.28;1.55;;;;;;;20.77;100.00;100256.28;5072692;28;20667;-75
2023/09/20 05:45:12;;;;;;;6.30;2.42;;;;;;;21.06;100.00;100317.09;5059971;28;20204;-76
2023/09/20 05:47:39;;;;;;;1.75;1.65;;;;;;;21.16;100.00;100362.59;5070648;28;20716;-76
2023/09/20 05:50:09;;;;;;;1.95;1.45;;;;;;;21.26;100.00;100361.47;5068847;28;20331;-75
2023/09/20 05:52:37;;;;;;;3.42;2.55;;;;;;;21.35;100.00;100360.41;5072287;28;20313;-76
2023/09/20 05:55:10;;;;;;;15.85;2.28;;;;;;;21.50;100.00;100358.25;5060166;28;20286;-76
2023/09/20 05:57:38;;;;;;;1.55;1.45;;;;;;;21.51;100.00;100369.69;5055570;28;20686;-76
2023/09/20 06:00:17;;;;;;;2.53;1.50;;;;;;;21.63;100.00;100367.59;5070493;28;20206;-77
2023/09/20 06:02:44;;;;;;;2.28;1.65;;;;;;;21.70;100.00;100368.28;5066987;28;20195;-76
2023/09/20 06:05:12;;;;;;;1.45;1.35;;;;;;;21.59;100.00;100338.66;5070549;28;20256;-77
2023/09/20 06:07:40;;;;;;;3.15;1.60;;;;;;;21.78;100.00;100371.63;5071133;28;20211;-77
2023/09/20 06:10:09;;;;;;;2.13;1.40;;;;;;;21.88;100.00;100378.38;5035664;28;20294;-77
2023/09/20 06:12:36;;;;;;;2.50;2.30;;;;;;;21.84;100.00;100379.38;5070851;28;20242;-77
2023/09/20 06:15:03;;;;;;;1.60;1.50;;;;;;;21.83;100.00;100382.06;5071146;28;21376;-76
2023/09/20 06:17:31;;;;;;;6.30;2.72;;;;;;;21.79;100.00;100354.88;5069845;28;20203;-77
2023/09/20 06:19:58;;;;;;;5.07;2.70;;;;;;;22.09;100.00;100379.59;5066480;28;20559;-76
2023/09/20 06:22:28;;;;;;;3.63;2.00;;;;;;;22.42;100.00;100386.59;5069845;28;20214;-77
2023/09/20 06:24:58;;;;;;;7.68;3.78;;;;;;;22.31;100.00;100367.53;5065815;28;20230;-75
2023/09/20 06:27:26;;;;;;;1.90;1.45;;;;;;;22.84;100.00;100404.78;5067291;28;20245;-74
2023/09/20 06:29:53;;;;;;;3.38;1.83;;;;;;;22.83;100.00;100393.34;5029123;28;20203;-75
2023/09/20 06:32:20;;;;;;;4.15;1.83;;;;;;;22.98;100.00;100387.59;5069409;28;20226;-75
2023/09/20 06:34:47;;;;;;;2.42;1.85;;;;;;;23.17;100.00;100417.00;5027354;28;20294;-75
2023/09/20 06:37:14;;;;;;;2.45;1.83;;;;;;;23.27;100.00;100412.28;5049104;28;20195;-75
2023/09/20 06:39:41;;;;;;;3.03;1.95;;;;;;;23.33;100.00;100412.94;5027068;28;20203;-76
2023/09/20 06:42:08;;;;;;;2.63;2.33;;;;;;;23.47;100.00;100417.84;5066914;28;20198;-75
2023/09/20 06:44:38;;;;;;;5.60;2.75;;;;;;;23.46;100.00;100416.97;5070987;28;20195;-75
2023/09/20 06:47:06;;;;;;;2.75;2.40;;;;;;;23.47;100.00;100417.84;5070776;28;20205;-76
2023/09/20 06:49:33;;;;;;;2.47;2.00;;;;;;;23.45;100.00;100395.84;5059866;28;20203;-76
2023/09/20 06:52:03;;;;;;;5.88;3.42;;;;;;;23.62;100.00;100418.19;5071672;28;20280;-77
2023/09/20 06:54:30;;;;;;;4.65;2.58;;;;;;;23.65;100.00;100419.91;5070764;28;20578;-76
2023/09/20 06:57:02;;;;;;;5.75;2.38;;;;;;;23.60;100.00;100408.59;5070923;28;20572;-77
2023/09/20 06:59:31;;;;;;;2.35;2.15;;;;;;;23.81;100.00;100434.34;5066848;28;20213;-76
2023/09/20 07:02:00;;;;;;;5.15;2.88;;;;;;;23.94;100.00;100435.66;5029129;28;20292;-77
2023/09/20 07:04:26;;;;;;;4.32;2.97;;;;;;;23.43;100.00;100434.75;5052113;28;20206;-76
2023/09/20 07:06:54;;;;;;;7.80;2.53;;;;;;;23.59;100.00;100436.84;5070625;28;20198;-77
2023/09/20 07:09:21;;;;;;;1.73;1.63;;;;;;;23.74;100.00;100440.75;5070728;28;20229;-76
2023/09/20 07:11:48;;;;;;;4.70;3.35;;;;;;;24.00;100.00;100440.75;5070779;28;20694;-75
2023/09/20 07:14:20;;;;;;;4.35;2.92;;;;;;;24.00;100.00;100432.81;5070528;28;20296;-75
2023/09/20 07:16:48;;;;;;;2.60;1.52;;;;;;;24.28;100.00;100442.47;5062389;28;20203;-78
2023/09/20 07:19:18;;;;;;;4.43;1.85;;;;;;;23.91;100.00;100417.22;5070855;28;20203;-77
2023/09/20 07:21:45;;;;;;;2.97;1.65;;;;;;;24.15;100.00;100445.53;5068081;28;20663;-77
2023/09/20 07:24:13;;;;;;;1.75;1.60;;;;;;;24.49;100.00;100436.41;5071159;28;20627;-75
2023/09/20 07:26:43;;;;;;;6.47;2.88;;;;;;;24.46;98.43;100431.22;5068006;28;20210;-78
2023/09/20 07:29:11;;;;;;;1.73;1.45;;;;;;;24.63;97.82;100447.38;5065980;28;20207;-78
2023/09/20 07:31:38;;;;;;;1.92;1.52;;;;;;;24.66;94.90;100452.56;5064889;28;20227;-77
2023/09/20 07:34:06;;;;;;;7.95;2.42;;;;;;;24.54;94.71;100443.25;5070524;28;20234;-77
2023/09/20 07:36:36;;;;;;;2.10;1.60;;;;;;;24.58;96.09;100438.72;5068415;28;20207;-75
2023/09/20 07:39:07;;;;;;;3.63;1.75;;;;;;;24.10;96.31;100391.81;5063059;28;20198;-77
2023/09/20 07:41:34;;;;;;;2.22;1.52;;;;;;;24.29;97.19;100453.03;5070602;28;20214;-75
2023/09/20 07:44:04;;;;;;;6.80;2.03;;;;;;;24.19;100.00;100441.88;5070630;28;20686;-76
2023/09/20 07:46:33;;;;;;;3.53;2.13;;;;;;;23.93;98.62;100399.50;5070531;28;20252;-76
2023/09/20 07:49:09;;;;;;;4.30;2.28;;;;;;;24.18;98.63;100445.47;5070500;28;20194;-76
2023/09/20 07:51:39;;;;;;;2.95;1.73;;;;;;;24.27;98.59;100452.22;5069999;28;20252;-75
2023/09/20 07:54:09;;;;;;;2.70;1.45;;;;;;;24.23;99.11;100450.59;5070330;28;20207;-78
2023/09/20 07:56:36;;;;;;;2.85;1.48;;;;;;;24.17;98.91;100438.44;5070182;28;20214;-76
2023/09/20 07:59:04;;;;;;;3.30;1.77;;;;;;;24.55;97.95;100454.75;5070251;28;20224;-78
2023/09/20 08:01:31;;;;;;;5.97;2.28;;;;;;;24.78;96.65;100452.13;5070296;28;20288;-77
2023/09/20 08:04:06;;;;;;;6.03;2.53;;;;;;;24.79;97.66;100445.03;5069701;28;20339;-77
2023/09/20 08:06:35;;;;;;;1.02;0.98;;;;;;;24.79;92.22;100453.88;5030092;28;20238;-77
2023/09/20 08:09:04;;;;;;;1.85;1.25;;;;;;;24.79;90.43;100459.16;5064808;28;20290;-76
2023/09/20 08:11:32;;;;;;;1.58;0.93;;;;;;;24.60;90.03;100439.53;5069843;28;20210;-77
2023/09/20 08:14:00;;;;;;;3.55;1.63;;;;;;;24.43;90.19;100450.75;5053500;28;20227;-78
2023/09/20 08:16:32;;;;;;;1.42;1.13;;;;;;;24.37;92.44;100461.56;5070943;28;20199;-75
2023/09/20 08:19:04;;;;;;;3.83;1.73;;;;;;;24.45;92.69;100459.50;5058095;28;20291;-76
2023/09/20 08:21:33;;;;;;;1.85;1.40;;;;;;;24.50;91.49;100462.00;5063711;28;20207;-75
2023/09/20 09:00:00;;;;;;;3.67;1.67;;;;;;;24.93;87.94;100445.41;5072755;28;20218;-75
2023/09/20 09:02:28;;;;;;;1.25;0.95;;;;;;;24.61;89.35;100410.28;5069290;28;20199;-75
2023/09/20 09:04:55;;;;;;;2.30;1.30;;;;;;;24.89;87.90;100438.47;5072524;28;20210;-75
2023/09/20 09:07:23;;;;;;;3.70;1.63;;;;;;;25.00;87.80;100436.28;5036860;28;20252;-74
2023/09/20 09:09:51;;;;;;;2.47;1.55;;;;;;;25.27;86.95;100432.56;5072496;28;20191;-75
2023/09/20 09:12:18;;;;;;;5.00;2.30;;;;;;;25.47;85.56;100431.78;5072290;28;20782;-76
2023/09/20 09:14:47;;;;;;;1.85;1.00;;;;;;;25.46;84.97;100430.91;5072062;28;20317;-75
2023/09/20 09:17:16;;;;;;;1.00;0.90;;;;;;;25.80;81.74;100422.41;5072137;28;20205;-75
2023/09/20 09:19:42;;;;;;;1.27;1.17;;;;;;;25.84;82.06;100415.19;5058709;28;20195;-76
2023/09/20 09:22:10;;;;;;;1.92;1.20;;;;;;;25.88;81.41;100388.44;5072627;28;20237;-75
2023/09/20 09:24:45;;;;;;;1.83;1.35;;;;;;;26.17;80.49;100416.41;5072365;28;20230;-74
2023/09/20 09:27:12;;;;;;;1.67;1.30;;;;;;;25.99;84.40;100412.75;5058355;28;20237;-74
2023/09/20 09:29:40;;;;;;;2.00;1.27;;;;;;;26.04;84.53;100413.41;5036635;28;20215;-76
2023/09/20 09:32:07;;;;;;;2.75;1.23;;;;;;;26.03;83.63;100405.50;5072303;28;20225;-75
2023/09/20 09:34:35;;;;;;;1.55;1.45;;;;;;;26.15;83.51;100407.63;5072207;28;20210;-76
2023/09/20 09:37:02;;;;;;;4.93;2.65;;;;;;;26.09;83.37;100399.91;5071611;28;20230;-76
2023/09/20 09:39:29;;;;;;;1.85;1.13;;;;;;;26.17;83.27;100400.47;5072181;28;20206;-77
2023/09/20 09:41:57;;;;;;;3.40;1.35;;;;;;;25.95;83.26;100400.53;5053967;28;20310;-76
2023/09/20 09:44:25;;;;;;;3.03;1.35;;;;;;;25.84;84.01;100400.09;5072733;28;20209;-77
2023/09/20 09:46:53;;;;;;;3.53;1.70;;;;;;;25.78;84.02;100400.38;5054360;28;20237;-77
2023/09/20 09:49:21;;;;;;;1.60;1.50;;;;;;;26.00;83.72;100398.53;5072380;28;20210;-76
2023/09/20 09:51:52;;;;;;;0.80;0.80;;;;;;;26.10;83.75;100402.53;5072468;28;20202;-78
2023/09/20 09:54:19;;;;;;;8.98;2.30;;;;;;;26.13;82.08;100391.75;5071940;28;20199;-76
2023/09/20 09:56:47;;;;;;;1.00;0.93;;;;;;;26.15;81.41;100373.94;5079710;28;20213;-77
2023/09/20 09:59:14;;;;;;;1.40;1.30;;;;;;;26.34;80.22;100389.09;5061629;28;21107;-76
2023/09/20 10:01:42;;;;;;;3.35;1.50;;;;;;;26.37;79.24;100383.63;5072003;28;20211;-75
2023/09/20 10:04:11;;;;;;;5.88;1.75;;;;;;;26.40;78.73;100356.91;5072213;28;20207;-76
2023/09/20 10:06:44;;;;;;;1.33;1.10;;;;;;;26.59;76.97;100381.72;5071995;28;20264;-76
2023/09/20 10:09:14;;;;;;;1.33;0.90;;;;;;;26.81;77.73;100377.16;5071779;28;20202;-76
2023/09/20 10:11:42;;;;;;;1.98;1.35;;;;;;;26.74;77.91;100380.16;5071907;28;20206;-78
2023/09/20 10:14:10;;;;;;;5.93;1.90;;;;;;;26.69;77.55;100377.72;5071965;28;20234;-78
2023/09/20 10:16:39;;;;;;;1.52;1.05;;;;;;;26.79;76.65;100376.34;5072258;28;20206;-77
2023/09/20 10:19:10;;;;;;;9.23;1.70;;;;;;;26.85;73.21;100369.91;5044698;28;20286;-77
2023/09/20 10:21:40;;;;;;;2.00;1.55;;;;;;;26.80;73.28;100378.06;5052550;28;20253;-79
2023/09/20 10:24:14;;;;;;;1.95;1.25;;;;;;;26.67;72.33;100371.59;5052375;28;20221;-75
2023/09/20 10:26:42;;;;;;;1.45;1.30;;;;;;;26.70;73.15;100371.47;5052158;28;20207;-76
2023/09/20 10:29:32;;;;;;;1.13;1.08;;;;;;;26.79;72.50;100367.53;5052343;28;20313;-79
2023/09/20 10:32:07;;;;;;;9.65;2.28;;;;;;;26.83;72.23;100369.97;5009857;28;20255;-77
2023/09/20 10:34:37;;;;;;;1.65;1.40;;;;;;;26.75;73.57;100372.13;5010153;28;20212;-75
2023/09/20 10:37:08;;;;;;;0.80;0.80;;;;;;;26.61;73.44;100334.66;5010230;28;20287;-76
2023/09/20 10:39:35;;;;;;;2.03;1.42;;;;;;;26.86;72.25;100367.16;5010174;28;20284;-77
2023/09/20 10:42:12;;;;;;;0.95;0.95;;;;;;;26.93;71.22;100334.00;5009741;28;20208;-74
2023/09/20 10:44:41;;;;;;;1.10;1.00;;;;;;;27.15;72.42;100344.47;5009897;28;20207;-75
2023/09/20 10:47:11;;;;;;;1.05;0.98;;;;;;;27.55;70.71;100357.56;5009854;28;20200;-76
2023/09/20 10:49:49;;;;;;;1.80;1.10;;;;;;;27.74;67.82;100346.84;5009930;28;20201;-74
2023/09/20 10:52:50;;;;;;;1.10;0.98;;;;;;;27.64;67.10;100356.25;5009843;28;20204;-76
2023/09/20 10:55:36;;;;;;;0.90;0.90;;;;;;;27.73;66.90;100355.78;5009669;28;20215;-75
2023/09/20 10:58:04;;;;;;;1.42;1.35;;;;;;;27.35;67.98;100348.84;4993345;28;20215;-74
2023/09/20 11:00:34;;;;;;;0.90;0.90;;;;;;;27.48;68.78;100340.19;5009534;28;20287;-74
2023/09/20 11:03:04;;;;;;;1.25;1.23;;;;;;;27.68;67.91;100328.53;5009595;28;20200;-77
2023/09/20 11:05:32;;;;;;;0.77;0.77;;;;;;;27.67;66.39;100332.13;5009540;28;20553;-77
2023/09/20 11:08:03;;;;;;;1.35;1.13;;;;;;;27.75;67.36;100343.25;5014366;28;20218;-78
2023/09/20 11:10:30;;;;;;;0.90;0.90;;;;;;;27.74;66.64;100340.66;5051451;28;20245;-77
2023/09/20 11:12:56;;;;;;;0.88;0.82;;;;;;;27.66;67.38;100321.53;5051085;28;20239;-76
2023/09/20 11:15:25;;;;;;;1.63;1.52;;;;;;;27.74;66.72;100335.31;5032859;28;20192;-77
2023/09/20 11:17:53;;;;;;;0.82;0.82;;;;;;;27.64;66.55;100318.97;5051594;28;20199;-77
2023/09/20 11:20:19;;;;;;;0.90;0.90;;;;;;;27.81;66.85;100337.59;5051344;28;20243;-76
2023/09/20 11:22:47;;;;;;;1.02;0.90;;;;;;;28.00;66.13;100332.19;5051391;28;20214;-76
2023/09/20 11:25:15;;;;;;;1.52;1.40;;;;;;;28.13;65.27;100325.28;5051020;28;20195;-77
2023/09/20 11:27:43;;;;;;;0.90;0.90;;;;;;;28.10;64.01;100322.78;5051294;28;20632;-78
2023/09/20 11:30:11;;;;;;;1.85;1.60;;;;;;;28.07;65.44;100302.44;5051243;28;20195;-81
2023/09/20 11:32:40;;;;;;;0.95;0.95;;;;;;;28.16;63.43;100306.44;5051240;28;20770;-78
2023/09/20 11:35:08;;;;;;;0.90;0.90;;;;;;;28.43;64.30;100328.09;5051097;28;20202;-77
2023/09/20 11:37:35;;;;;;;0.85;0.85;;;;;;;28.47;63.61;100324.28;5016317;28;20199;-76
2023/09/20 11:40:04;;;;;;;1.55;1.38;;;;;;;28.35;62.61;100290.31;5016412;28;20305;-76
2023/09/20 11:42:33;;;;;;;1.00;1.00;;;;;;;28.52;62.97;100316.91;5053272;28;20231;-75
2023/09/20 11:45:03;;;;;;;0.95;0.95;;;;;;;28.42;62.42;100313.91;5036655;28;20629;-79
2023/09/20 11:47:31;;;;;;;0.73;0.73;;;;;;;28.56;63.15;100315.81;5055576;28;20229;-75
2023/09/20 11:49:59;;;;;;;0.98;0.98;;;;;;;28.25;62.55;100302.44;5055240;28;20230;-74
2023/09/20 11:52:27;;;;;;;0.70;0.70;;;;;;;28.43;63.05;100309.44;5054675;28;20195;-75
2023/09/20 11:54:57;;;;;;;0.70;0.70;;;;;;;28.61;62.53;100313.72;5054986;28;20298;-75
2023/09/20 11:57:25;;;;;;;0.80;0.80;;;;;;;28.62;61.29;100291.44;5054657;28;20310;-75
2023/09/20 11:59:55;;;;;;;10.07;1.85;;;;;;;28.73;61.63;100297.06;5054690;28;20663;-75
2023/09/20 12:02:22;;;;;;;0.70;0.70;;;;;;;28.75;62.69;100305.88;5054598;28;20207;-75
2023/09/20 12:04:51;;;;;;;0.85;0.85;;;;;;;28.85;61.83;100304.41;5054782;28;20215;-74